Flight Track Log - Related Links

Times and Time Zones

All times are in EDT time to prevent confusion due to time zone crossing. See the ASQ4260 flight status page for this flight to view local times or setup timezone preferences in your user account.

Time Position Orientation Groundspeed Altitude Reporting Facility
EDT Latitude Longitude Course Direction KTS MPH feet Rate Location/Type
Sat 08:38:00 AM 29.9550 -95.3394 97° East 191 220 600  Level Houston Center
Sat 08:39:14 AM 29.9114 -95.2767 129° Southeast 220 253 2,100 1,467 Climbing Houston Center
Sat 08:40:15 AM 29.8647 -95.2117 130° Southeast 256 295 3,900 2,015 Climbing Houston Center
Sat 08:41:00 AM 29.9140 -94.8342 95° East  Level FlightAware Approximate
Sat 08:41:28 AM 29.8008 -95.1247 130° Southeast 268 308 6,600  Level Houston Center
Sat 08:42:00 AM 29.9035 -94.7084 95° East  Level FlightAware Approximate
Sat 08:42:18 AM 29.7889 -95.0664 103° East 273 314 8,000  Level Houston Center
Sat 08:43:00 AM 29.8908 -94.5828 97° East  Level FlightAware Approximate
Sat 08:43:19 AM 29.7772 -94.9764 98° East 282 325 9,800  Level Houston Center
Sat 08:44:21 AM 29.7833 -94.8844 86° East 291 335 11,200 1,463 Climbing Houston Center
Sat 08:45:22 AM 29.7969 -94.7914 80° East 295 339 12,800 1,230 Climbing Houston Center
Sat 08:46:23 AM 29.8139 -94.6719 81° East 318 366 13,700 976 Climbing Houston Center
Sat 08:47:25 AM 29.8289 -94.5628 81° East 342 394 14,800 1,122 Climbing Houston Center
Sat 08:48:26 AM 29.8436 -94.4533 81° East 345 397 16,000 1,122 Climbing Houston Center
Sat 08:49:28 AM 29.8589 -94.3442 81° East 346 398 17,100 1,024 Climbing Houston Center
Sat 08:50:29 AM 29.8589 -94.2322 90° East 350 403 18,100 984 Climbing Houston Center
Sat 08:51:30 AM 29.8553 -94.1106 92° East 357 411 19,100 927 Climbing Houston Center
Sat 08:52:32 AM 29.8586 -93.9956 88° East 361 415 20,000 927 Climbing Houston Center
Sat 08:53:33 AM 29.8728 -93.8800 82° East 364 419 21,000 927 Climbing Houston Center
Sat 08:54:35 AM 29.8933 -93.7678 78° East 363 418 21,900 878 Climbing Houston Center
Sat 08:55:36 AM 29.9125 -93.6536 79° East 364 419 22,800 927 Climbing Houston Center
Sat 08:56:38 AM 29.9356 -93.5194 79° East 361 415 23,800 780 Climbing Houston Center
Sat 08:57:39 AM 29.9550 -93.4053 79° East 365 420 24,400 639 Climbing Houston Center
Sat 08:58:40 AM 29.9750 -93.2906 79° East 369 425 25,100 732 Climbing Houston Center
Sat 08:59:42 AM 29.9953 -93.1744 79° East 372 428 25,900 732 Climbing Houston Center
Sat 09:00:43 AM 30.0153 -93.0575 79° East 375 432 26,600 732 Climbing Houston Center
Sat 09:01:45 AM 30.0350 -92.9422 79° East 370 426 27,400 976 Climbing Houston Center
Sat 09:02:46 AM 30.0539 -92.8286 79° East 365 420 28,600 1,377 Climbing Houston Center
Sat 09:03:47 AM 30.0769 -92.6953 79° East 356 410 30,200 1,415 Climbing Houston Center
Sat 09:04:49 AM 30.0944 -92.5903 79° East 340 391 31,500 1,268 Climbing Houston Center
Sat 09:05:50 AM 30.1103 -92.4872 80° East 329 379 32,800 1,268 Climbing Houston Center
Sat 09:06:52 AM 30.1281 -92.3878 78° East 320 368 34,100 1,073 Climbing Houston Center
Sat 09:07:53 AM 30.1436 -92.2900 80° East 311 358 35,000 439 Climbing Houston Center
Sat 09:08:55 AM 30.1592 -92.1894 80° East 319 367 35,000  Level Houston Center
Sat 09:09:56 AM 30.1769 -92.0806 79° East 342 394 35,000  Level Houston Center
Sat 09:10:58 AM 30.1975 -91.9631 79° East 367 422 35,000  Level Houston Center
Sat 09:11:59 AM 30.2183 -91.8331 79° East 385 443 35,000  Level Houston Center
Sat 09:13:01 AM 30.2406 -91.6917 80° East 397 457 35,000  Level Houston Center
Sat 09:14:02 AM 30.2603 -91.5683 79° East 392 451 35,000  Level Houston Center
Sat 09:15:04 AM 30.2792 -91.4475 80° East 386 444 35,000  Level Houston Center
Sat 09:16:05 AM 30.2997 -91.3256 79° East 385 443 35,000  Level Houston Center
Sat 09:17:07 AM 30.3181 -91.2042 80° East 385 443 35,000  Level Houston Center
Sat 09:18:08 AM 30.3411 -91.0819 78° East 388 447 35,000  Level Houston Center
Sat 09:19:10 AM 30.3614 -90.9581 79° East 391 450 35,000  Level Houston Center
Sat 09:20:11 AM 30.3886 -90.8092 78° East 395 455 35,000  Level Houston Center
Sat 09:21:13 AM 30.4094 -90.6861 79° East 391 450 35,000  Level Houston Center
Sat 09:22:14 AM 30.4297 -90.5631 79° East 388 447 35,000  Level Houston Center
Sat 09:23:16 AM 30.4514 -90.4403 78° East 389 448 35,000  Level Houston Center
Sat 09:24:17 AM 30.4722 -90.3181 79° East 387 445 35,000  Level Houston Center
Sat 09:25:19 AM 30.4925 -90.1964 79° East 384 442 35,000  Level Houston Center
Sat 09:26:20 AM 30.5133 -90.0717 79° East 391 450 35,000  Level Houston Center
Sat 09:27:22 AM 30.5344 -89.9453 79° East 395 455 35,000  Level Houston Center
Sat 09:28:23 AM 30.5561 -89.8181 79° East 396 456 35,000  Level Houston Center
Sat 09:29:25 AM 30.5769 -89.6889 79° East 400 460 35,000  Level Houston Center
Sat 09:30:26 AM 30.5981 -89.5614 79° East 401 461 35,000  Level Houston Center
Sat 09:31:28 AM 30.6219 -89.4081 80° East 400 460 35,000  Level Houston Center
Sat 09:32:29 AM 30.6431 -89.2786 79° East 406 467 35,000  Level Houston Center
Sat 09:33:30 AM 30.6622 -89.1483 80° East 409 471 35,000  Level Houston Center
Sat 09:34:32 AM 30.6825 -89.0178 80° East 411 473 35,000  Level Houston Center
Sat 09:35:33 AM 30.7031 -88.8828 80° East 414 476 35,000  Level Houston Center
Sat 09:36:35 AM 30.7231 -88.7503 80° East 417 480 35,000  Level Houston Center
Sat 09:37:37 AM 30.7442 -88.6208 79° East 417 480 35,000  Level Houston Center
Sat 09:38:38 AM 30.7639 -88.4889 80° East 416 479 35,000 -49 Level Houston Center
Sat 09:39:40 AM 30.7919 -88.3286 78° East 419 482 34,900 -49 Descending Houston Center
Sat 09:40:41 AM 30.8078 -88.1897 82° East 429 494 34,900  Level Houston Center
Sat 09:41:43 AM 30.8303 -88.0506 79° East 436 502 34,900  Level Houston Center
Sat 09:42:44 AM 30.8528 -87.9103 79° East 441 507 34,900 49 Level Houston Center
Sat 09:43:46 AM 30.8736 -87.7683 80° East 445 512 35,000 49 Climbing Houston Center
Sat 09:44:47 AM 30.8947 -87.6319 80° East 451 519 35,000  Level Houston Center
Sat 09:45:49 AM 30.9192 -87.4561 81° East 460 529 35,000  Level Houston Center
Sat 09:46:50 AM 30.9406 -87.3075 80° East 466 536 35,000  Level Houston Center
Sat 09:47:52 AM 30.9628 -87.1578 80° East 470 541 35,000  Level Houston Center
Sat 09:48:54 AM 30.9839 -86.9992 81° East 462 532 35,000  Level Houston Center
Sat 09:49:55 AM 31.0042 -86.8558 81° East 450 518 35,000  Level Houston Center
Sat 09:50:57 AM 31.0228 -86.7108 81° East 451 519 35,000  Level Houston Center
Sat 09:51:58 AM 31.0442 -86.5606 81° East 466 536 35,000  Level Houston Center
Sat 09:53:00 AM 31.0650 -86.4106 81° East 468 539 35,000  Level Houston Center
Sat 09:54:01 AM 31.0856 -86.2589 81° East 472 543 35,000  Level Houston Center
Sat 09:55:14 AM 31.1078 -86.0783 82° East 468 539 35,000  Level Jacksonville Center
Sat 09:56:14 AM 31.1261 -85.9286 82° East 463 533 35,000  Level Jacksonville Center
Sat 09:57:14 AM 31.1486 -85.7642 81° East 468 539 35,000  Level Jacksonville Center
Sat 09:58:14 AM 31.1706 -85.6217 80° East 473 544 35,000  Level Jacksonville Center
Sat 09:59:14 AM 31.1903 -85.4742 81° East 473 544 35,000  Level Jacksonville Center
Sat 10:00:14 AM 31.2078 -85.3239 82° East 468 539 35,000  Level Jacksonville Center
Sat 10:01:14 AM 31.2275 -85.1739 81° East 468 539 35,000  Level Jacksonville Center
Sat 10:02:14 AM 31.2469 -85.0117 82° East 463 533 35,000  Level Jacksonville Center
Sat 10:03:14 AM 31.2658 -84.8636 81° East 463 533 35,000  Level Jacksonville Center
Sat 10:04:14 AM 31.2850 -84.7158 81° East 463 533 35,000  Level Jacksonville Center
Sat 10:05:14 AM 31.3017 -84.5653 83° East 463 533 35,000  Level Jacksonville Center
Sat 10:06:14 AM 31.3200 -84.4175 82° East 463 533 35,000  Level Jacksonville Center
Sat 10:07:14 AM 31.3386 -84.2644 82° East 463 533 35,000  Level Jacksonville Center
Sat 10:08:14 AM 31.3547 -84.1186 83° East 463 533 35,000  Level Jacksonville Center
Sat 10:09:14 AM 31.3728 -83.9706 82° East 463 533 35,000  Level Jacksonville Center
Sat 10:10:14 AM 31.3886 -83.8197 83° East 463 533 35,000 -150 Level Jacksonville Center
Sat 10:11:14 AM 31.4061 -83.6739 82° East 463 533 34,700 -700 Descending Jacksonville Center
Sat 10:12:14 AM 31.4217 -83.5256 83° East 463 533 33,600 -850 Descending Jacksonville Center
Sat 10:13:14 AM 31.4369 -83.3819 83° East 458 527 33,000 -300 Descending Jacksonville Center
Sat 10:14:14 AM 31.4561 -83.2336 81° East 453 521 33,000  Level Jacksonville Center
Sat 10:15:14 AM 31.4733 -83.0875 82° East 453 521 33,000 -300 Level Jacksonville Center
Sat 10:16:14 AM 31.4900 -82.9389 82° East 453 521 32,400 -1,000 Descending Jacksonville Center
Sat 10:17:14 AM 31.5047 -82.7878 83° East 463 533 31,000 -1,400 Descending Jacksonville Center
Sat 10:18:14 AM 31.5211 -82.6414 82° East 463 533 29,600 -1,000 Descending Jacksonville Center
Sat 10:19:14 AM 31.5417 -82.4978 80° East 458 527 29,000 -900 Descending Jacksonville Center
Sat 10:20:14 AM 31.6017 -82.3656 62° Northeast 439 505 27,800 -1,300 Descending Jacksonville Center
Sat 10:21:14 AM 31.6658 -82.2358 60° Northeast 456 525 26,400 -1,300 Descending Jacksonville Center
Sat 10:22:14 AM 31.7194 -82.1183 62° Northeast 462 532 25,200 -1,200 Descending Jacksonville Center
Sat 10:23:14 AM 31.7875 -81.9736 61° Northeast 456 525 24,000 -600 Descending Jacksonville Center
Sat 10:24:14 AM 31.8469 -81.8458 61° Northeast 442 509 24,000 -250 Level Jacksonville Center
Sat 10:25:14 AM 31.9022 -81.7303 61° Northeast 437 503 23,500 -700 Descending Jacksonville Center
Sat 10:26:14 AM 31.9678 -81.5897 61° Northeast 447 514 22,600 -800 Descending Jacksonville Center
Sat 10:27:14 AM 32.0228 -81.4714 61° Northeast 447 514 21,900 -800 Descending Jacksonville Center
Sat 10:28:14 AM 32.1006 -81.3328 56° Northeast 453 521 21,000 -850 Descending Jacksonville Center
Sat 10:29:14 AM 32.1681 -81.2139 56° Northeast 442 509 20,200 -800 Descending Jacksonville Center
Sat 10:30:14 AM 32.2394 -81.0972 54° Northeast 436 502 19,400 -750 Descending Jacksonville Center
Sat 10:31:14 AM 32.3067 -80.9853 55° Northeast 431 496 18,700 -1,100 Descending Jacksonville Center
Sat 10:32:14 AM 32.3656 -80.8831 56° Northeast 431 496 17,200 -1,750 Descending Jacksonville Center
Sat 10:33:14 AM 32.4367 -80.7583 56° Northeast 425 489 15,200 -2,000 Descending Jacksonville Center
Sat 10:34:14 AM 32.4975 -80.6511 56° Northeast 401 461 13,200 -2,050 Descending Jacksonville Center
Sat 10:35:14 AM 32.5542 -80.5586 54° Northeast 349 402 11,100 -1,600 Descending Jacksonville Center
Sat 10:36:14 AM 32.6006 -80.4736 57° Northeast 327 376 10,000 -1,050 Descending Jacksonville Center
Sat 10:37:14 AM 32.6300 -80.3814 69° East 294 338 9,000 -950 Descending Jacksonville Center
Sat 10:38:14 AM 32.6517 -80.3044 71° East 270 311 8,100 -1,150 Descending Jacksonville Center
Sat 10:39:14 AM 32.7031 -80.2708 29° Northeast 227 261 6,700 -1,700 Descending Jacksonville Center
Sat 10:40:14 AM 32.7631 -80.2469 19° North 220 253 4,700 -2,050 Descending Jacksonville Center
Sat 10:41:14 AM 32.7369 -80.1908 119° Southeast 145 167 2,600 -1,550 Descending Jacksonville Center
Sat 10:42:14 AM 32.7294 -80.1392 100° East 145 167 1,600 -1,000 Descending Jacksonville Center

Login

Don't have an account? Register now (free) for customized features, flight alerts, and more!